Main page
METAR-TAF:

METAR-TAF

Airports :

Çorlu, Turkey

Tekirdağ Çorlu Airport

latitude: 41-08N, longitude: 027-55E, elevation: 173 m

Current weather observation

The report was made 18 minutes ago, at 23:50 UTC
Wind 5 kt from the North
Temperature 3°C
Humidity 93%
Pressure 1021 hPa
Visibility 10 km or more
no clouds below 1500 m and no cumulonimbus

METAR: LTBU 262350Z 36005KT CAVOK 03/02 Q1021

Time: 02:08 (00:08 UTC)

Forecast

The report was made 1 hour and 28 minutes ago, at 22:40 UTC
Forecast valid from 27 at 00 UTC to 27 at 24 UTC
Wind 7 kt from the North
Visibility 10 km or more
no clouds below 1500 m and no cumulonimbus
Temporary
from 27 at 00 UTC to 27 at 04 UTC
Visibility: 2000 m
Scattered clouds at a height of 800 ft
mist
Becoming
from 27 at 05 UTC to 27 at 08 UTC
Few clouds at a height of 3500 ft

TAF: LTBU 262240Z 2700/2724 01007KT CAVOK TEMPO 2700/2704 2000 BR SCT008 BECMG 2705/2708 FEW035

Weather observations and forecasts of more than 4000 airports (METAR and TAF reports).

The available stations are represented by yellow and red dots on the map.

Hover mouse over dot to see the name of the station.

Then click to see weather observations and forecasts.

To change the map : click on the green buttons with a black cross to zoom in, on the green button with a dash to zoom out, or on the green arrows for adjacent maps.


METAR-TAF: